createdAt,value
2018-07-17T00:00:34.595Z,1008.10
2018-07-17T00:01:34.591Z,1008.05
2018-07-17T00:02:34.599Z,1008.06
2018-07-17T00:03:34.601Z,1008.06
2018-07-17T00:04:34.600Z,1008.06
2018-07-17T00:05:34.603Z,1008.06
2018-07-17T00:06:34.605Z,1008.05
2018-07-17T00:07:34.603Z,1008.04
2018-07-17T00:08:34.608Z,1008.01
2018-07-17T00:09:34.623Z,1008.05
2018-07-17T00:10:34.609Z,1008.02
2018-07-17T00:11:34.614Z,1008.04
2018-07-17T00:12:34.617Z,1008.02
2018-07-17T00:13:34.618Z,1008.02
2018-07-17T00:14:34.618Z,1008.00
2018-07-17T00:15:34.626Z,1008.03
2018-07-17T00:16:34.623Z,1007.99
2018-07-17T00:17:34.625Z,1007.98
2018-07-17T00:18:34.624Z,1007.98
2018-07-17T00:19:34.628Z,1007.96
2018-07-17T00:20:34.629Z,1007.98
2018-07-17T00:21:34.633Z,1007.95
2018-07-17T00:22:34.633Z,1007.99
2018-07-17T00:23:34.635Z,1008.00
2018-07-17T00:24:34.637Z,1007.97
2018-07-17T00:25:34.640Z,1008.00
2018-07-17T00:26:34.645Z,1007.97
2018-07-17T00:27:34.648Z,1007.95
2018-07-17T00:28:34.644Z,1007.96
2018-07-17T00:29:34.647Z,1007.95
2018-07-17T00:30:34.649Z,1007.94
2018-07-17T00:31:34.649Z,1007.92
2018-07-17T00:32:34.657Z,1007.92
2018-07-17T00:33:34.653Z,1007.94
2018-07-17T00:34:34.655Z,1007.93
2018-07-17T00:35:34.657Z,1007.90
2018-07-17T00:36:34.656Z,1007.89
2018-07-17T00:37:34.663Z,1007.90
2018-07-17T00:38:34.664Z,1007.91
2018-07-17T00:39:34.664Z,1007.90
2018-07-17T00:40:34.665Z,1007.92
2018-07-17T00:41:34.668Z,1007.92
2018-07-17T00:42:34.669Z,1007.88
2018-07-17T00:43:34.672Z,1007.93
2018-07-17T00:44:34.676Z,1007.93
2018-07-17T00:45:34.674Z,1007.92
2018-07-17T00:46:34.676Z,1007.93
2018-07-17T00:47:34.677Z,1007.94
2018-07-17T00:48:34.678Z,1007.98
2018-07-17T00:49:34.682Z,1008.01
2018-07-17T00:50:34.686Z,1008.04
2018-07-17T00:51:34.688Z,1008.02
2018-07-17T00:52:34.686Z,1008.01
2018-07-17T00:53:34.694Z,1007.98
2018-07-17T00:54:34.690Z,1007.98
2018-07-17T00:55:34.706Z,1008.01
2018-07-17T00:56:34.692Z,1007.99
2018-07-17T00:57:34.701Z,1008.01
2018-07-17T00:58:34.695Z,1007.97
2018-07-17T00:59:34.696Z,1007.99
2018-07-17T01:00:34.700Z,1007.99
2018-07-17T01:01:34.706Z,1007.98
2018-07-17T01:02:34.701Z,1008.00
2018-07-17T01:03:34.708Z,1008.00
2018-07-17T01:04:34.713Z,1008.00
2018-07-17T01:05:34.706Z,1007.98
2018-07-17T01:06:34.711Z,1007.96
2018-07-17T01:07:34.711Z,1007.98
2018-07-17T01:08:34.711Z,1008.01
2018-07-17T01:09:34.714Z,1007.98
2018-07-17T01:10:34.712Z,1008.05
2018-07-17T01:11:34.716Z,1008.02
2018-07-17T01:12:34.715Z,1008.01
2018-07-17T01:13:34.720Z,1008.01
2018-07-17T01:14:34.721Z,1008.00
2018-07-17T01:15:34.723Z,1007.98
2018-07-17T01:16:34.726Z,1007.95
2018-07-17T01:17:34.731Z,1007.94
2018-07-17T01:18:34.732Z,1007.92
2018-07-17T01:19:34.738Z,1007.93
2018-07-17T01:20:34.731Z,1007.91
2018-07-17T01:21:34.733Z,1007.90
2018-07-17T01:22:34.736Z,1007.93
2018-07-17T01:23:34.744Z,1007.89
2018-07-17T01:24:34.747Z,1007.90
2018-07-17T01:25:34.734Z,1007.90
2018-07-17T01:26:34.739Z,1007.92
2018-07-17T01:27:34.741Z,1007.95
2018-07-17T01:28:34.747Z,1007.93
2018-07-17T01:29:34.746Z,1007.96
2018-07-17T01:30:34.748Z,1007.93
2018-07-17T01:31:34.749Z,1007.91
2018-07-17T01:32:34.751Z,1007.93
2018-07-17T01:33:34.754Z,1007.94
2018-07-17T01:34:34.758Z,1007.93
2018-07-17T01:35:34.760Z,1007.94
2018-07-17T01:36:34.758Z,1007.93
2018-07-17T01:37:34.760Z,1007.95
2018-07-17T01:38:34.785Z,1007.96
2018-07-17T01:39:34.762Z,1007.93
2018-07-17T01:40:34.764Z,1007.90
2018-07-17T01:41:34.765Z,1007.90
2018-07-17T01:42:34.767Z,1007.91
2018-07-17T01:43:34.769Z,1007.91
2018-07-17T01:44:34.770Z,1007.91
2018-07-17T01:45:34.775Z,1007.91
2018-07-17T01:46:34.773Z,1007.88
2018-07-17T01:47:34.770Z,1007.89
2018-07-17T01:48:34.782Z,1007.86
2018-07-17T01:49:34.779Z,1007.92
2018-07-17T01:50:34.784Z,1007.93
2018-07-17T01:51:34.782Z,1007.92
2018-07-17T01:52:34.782Z,1007.97
2018-07-17T01:53:34.786Z,1007.94
2018-07-17T01:54:34.786Z,1007.94
2018-07-17T01:55:34.788Z,1007.93
2018-07-17T01:56:34.794Z,1007.95
2018-07-17T01:57:34.793Z,1007.95
2018-07-17T01:58:34.790Z,1007.93
2018-07-17T01:59:34.794Z,1007.94
2018-07-17T02:00:34.797Z,1007.92
2018-07-17T02:01:34.797Z,1007.91
2018-07-17T02:02:34.800Z,1007.90
2018-07-17T02:03:34.803Z,1007.93
2018-07-17T02:04:34.799Z,1007.91
2018-07-17T02:05:34.804Z,1007.92
2018-07-17T02:06:34.805Z,1007.95
2018-07-17T02:07:34.809Z,1007.95
2018-07-17T02:08:34.817Z,1007.94
2018-07-17T02:09:34.811Z,1007.96
2018-07-17T02:10:34.816Z,1007.95
2018-07-17T02:11:34.817Z,1007.95
2018-07-17T02:12:34.815Z,1007.93
2018-07-17T02:13:34.820Z,1007.93
2018-07-17T02:14:34.819Z,1007.89
2018-07-17T02:15:34.821Z,1007.88
2018-07-17T02:16:34.822Z,1007.86
2018-07-17T02:17:34.825Z,1007.86
2018-07-17T02:18:34.822Z,1007.84
2018-07-17T02:19:34.825Z,1007.84
2018-07-17T02:20:34.829Z,1007.82
2018-07-17T02:21:34.831Z,1007.79
2018-07-17T02:22:34.832Z,1007.82
2018-07-17T02:23:34.839Z,1007.85
2018-07-17T02:24:34.837Z,1007.83
2018-07-17T02:25:34.836Z,1007.85
2018-07-17T02:26:34.837Z,1007.83
2018-07-17T02:27:34.839Z,1007.82
2018-07-17T02:28:34.842Z,1007.82
2018-07-17T02:29:34.843Z,1007.78
2018-07-17T02:30:34.849Z,1007.79
2018-07-17T02:31:34.846Z,1007.81
2018-07-17T02:32:34.846Z,1007.77
2018-07-17T02:33:34.848Z,1007.77
2018-07-17T02:34:34.852Z,1007.80
2018-07-17T02:35:34.852Z,1007.77
2018-07-17T02:36:34.854Z,1007.78
2018-07-17T02:37:34.853Z,1007.77
2018-07-17T02:38:34.853Z,1007.76
2018-07-17T02:39:34.855Z,1007.77
2018-07-17T02:40:34.855Z,1007.72
2018-07-17T02:41:34.861Z,1007.70
2018-07-17T02:42:34.862Z,1007.71
2018-07-17T02:43:34.862Z,1007.70
2018-07-17T02:44:34.865Z,1007.71
2018-07-17T02:45:34.865Z,1007.72
2018-07-17T02:46:34.868Z,1007.70
2018-07-17T02:47:34.864Z,1007.69
2018-07-17T02:48:34.871Z,1007.69
2018-07-17T02:49:34.880Z,1007.69
2018-07-17T02:50:34.876Z,1007.73
2018-07-17T02:51:34.873Z,1007.72
2018-07-17T02:52:34.877Z,1007.70
2018-07-17T02:53:34.880Z,1007.68
2018-07-17T02:54:34.878Z,1007.71
2018-07-17T02:55:34.879Z,1007.71
2018-07-17T02:56:34.882Z,1007.73
2018-07-17T02:57:34.882Z,1007.71
2018-07-17T02:58:34.884Z,1007.72
2018-07-17T02:59:34.885Z,1007.70
2018-07-17T03:00:34.888Z,1007.70
2018-07-17T03:01:34.888Z,1007.72
2018-07-17T03:02:34.898Z,1007.72
2018-07-17T03:03:34.890Z,1007.76
2018-07-17T03:04:34.891Z,1007.74
2018-07-17T03:05:34.895Z,1007.74
2018-07-17T03:06:34.894Z,1007.77
2018-07-17T03:07:34.899Z,1007.78
2018-07-17T03:08:34.899Z,1007.76
2018-07-17T03:09:34.905Z,1007.76
2018-07-17T03:10:34.900Z,1007.74
2018-07-17T03:11:34.903Z,1007.75
2018-07-17T03:12:34.906Z,1007.77
2018-07-17T03:13:34.907Z,1007.76
2018-07-17T03:14:34.912Z,1007.78
2018-07-17T03:15:34.909Z,1007.75
2018-07-17T03:16:34.910Z,1007.78
2018-07-17T03:17:34.911Z,1007.80
2018-07-17T03:18:34.912Z,1007.84
2018-07-17T03:19:34.917Z,1007.82
2018-07-17T03:20:34.916Z,1007.87
2018-07-17T03:21:34.918Z,1007.85
2018-07-17T03:22:34.917Z,1007.85
2018-07-17T03:23:34.924Z,1007.86
2018-07-17T03:24:34.984Z,1007.87
2018-07-17T03:25:34.926Z,1007.92
2018-07-17T03:26:34.924Z,1007.91
2018-07-17T03:27:34.931Z,1007.90
2018-07-17T03:28:34.931Z,1007.92
2018-07-17T03:29:34.929Z,1007.91
2018-07-17T03:30:34.932Z,1007.91
2018-07-17T03:31:34.936Z,1007.91
2018-07-17T03:32:34.934Z,1007.88
2018-07-17T03:33:34.941Z,1007.91
2018-07-17T03:34:34.939Z,1007.91
2018-07-17T03:35:34.940Z,1007.93
2018-07-17T03:36:34.963Z,1007.90
2018-07-17T03:37:34.941Z,1007.91
2018-07-17T03:38:34.945Z,1007.97
2018-07-17T03:39:34.947Z,1007.98
2018-07-17T03:40:34.948Z,1007.97
2018-07-17T03:41:34.952Z,1007.94
2018-07-17T03:42:34.952Z,1007.98
2018-07-17T03:43:34.952Z,1007.98
2018-07-17T03:44:34.955Z,1008.01
2018-07-17T03:45:34.957Z,1008.01
2018-07-17T03:46:34.958Z,1008.00
2018-07-17T03:47:34.963Z,1008.00
2018-07-17T03:48:34.965Z,1007.91
2018-07-17T03:49:34.966Z,1007.91
2018-07-17T03:50:34.965Z,1007.94
2018-07-17T03:51:34.968Z,1007.91
2018-07-17T03:52:34.967Z,1007.93
2018-07-17T03:53:34.970Z,1007.95
2018-07-17T03:54:34.973Z,1007.93
2018-07-17T03:55:34.978Z,1007.95
2018-07-17T03:56:34.975Z,1007.94
2018-07-17T03:57:34.980Z,1007.93
2018-07-17T03:58:34.980Z,1007.96
2018-07-17T03:59:34.987Z,1007.95
2018-07-17T04:00:34.992Z,1007.95
2018-07-17T04:01:34.987Z,1007.96
2018-07-17T04:02:34.988Z,1007.99
2018-07-17T04:03:34.992Z,1007.98
2018-07-17T04:04:34.994Z,1007.97
2018-07-17T04:05:35.000Z,1007.95
2018-07-17T04:06:34.996Z,1007.96
2018-07-17T04:07:34.999Z,1007.96
2018-07-17T04:08:35.012Z,1007.90
2018-07-17T04:09:35.005Z,1007.88
2018-07-17T04:10:35.004Z,1007.88
2018-07-17T04:11:35.006Z,1007.91
2018-07-17T04:12:35.004Z,1007.87
2018-07-17T04:13:35.011Z,1007.89
2018-07-17T04:14:35.011Z,1007.92
2018-07-17T04:15:35.015Z,1007.91
2018-07-17T04:16:35.017Z,1007.93
2018-07-17T04:17:35.024Z,1007.96
2018-07-17T04:18:35.021Z,1008.00
2018-07-17T04:19:35.028Z,1008.03
2018-07-17T04:20:35.026Z,1008.06
2018-07-17T04:21:35.044Z,1008.03
2018-07-17T04:22:35.034Z,1008.03
2018-07-17T04:23:35.032Z,1008.08
2018-07-17T04:24:35.037Z,1008.03
2018-07-17T04:25:35.042Z,1008.09
2018-07-17T04:26:35.037Z,1008.07
2018-07-17T04:27:35.046Z,1008.08
2018-07-17T04:28:35.044Z,1008.08
2018-07-17T04:29:35.049Z,1008.08
2018-07-17T04:30:35.049Z,1008.04
2018-07-17T04:31:35.074Z,1008.01
2018-07-17T04:32:35.049Z,1008.02
2018-07-17T04:33:35.057Z,1008.06
2018-07-17T04:34:35.060Z,1008.06
2018-07-17T04:35:35.064Z,1008.04
2018-07-17T04:36:35.064Z,1008.06
2018-07-17T04:37:35.063Z,1008.11
2018-07-17T04:38:35.068Z,1008.10
2018-07-17T04:39:35.072Z,1008.12
2018-07-17T04:40:35.074Z,1008.13
2018-07-17T04:41:35.077Z,1008.14
2018-07-17T04:42:35.087Z,1008.11
2018-07-17T04:43:35.084Z,1008.13
2018-07-17T04:44:35.084Z,1008.17
2018-07-17T04:45:35.089Z,1008.14
2018-07-17T04:46:35.091Z,1008.13
2018-07-17T04:47:35.093Z,1008.17
2018-07-17T04:48:35.097Z,1008.17
2018-07-17T04:49:35.109Z,1008.16
2018-07-17T04:50:35.102Z,1008.15
2018-07-17T04:51:35.102Z,1008.17
2018-07-17T04:52:35.112Z,1008.13
2018-07-17T04:53:35.111Z,1008.16
2018-07-17T04:54:35.111Z,1008.17
2018-07-17T04:55:35.114Z,1008.16
2018-07-17T04:56:35.119Z,1008.14
2018-07-17T04:57:35.121Z,1008.16
2018-07-17T04:58:35.123Z,1008.15
2018-07-17T04:59:35.126Z,1008.13
2018-07-17T05:00:35.126Z,1008.14
2018-07-17T05:01:35.142Z,1008.10
2018-07-17T05:02:35.130Z,1008.13
2018-07-17T05:03:35.138Z,1008.11
2018-07-17T05:04:35.143Z,1008.10
2018-07-17T05:05:35.143Z,1008.09
2018-07-17T05:06:35.145Z,1008.10
2018-07-17T05:07:35.147Z,1008.06
2018-07-17T05:08:35.152Z,1008.10
2018-07-17T05:09:35.153Z,1008.09
2018-07-17T05:10:35.154Z,1008.08
2018-07-17T05:11:35.160Z,1008.06
2018-07-17T05:12:35.162Z,1008.10
2018-07-17T05:13:35.164Z,1008.10
2018-07-17T05:14:35.166Z,1008.09
2018-07-17T05:15:35.171Z,1008.09
2018-07-17T05:16:35.175Z,1008.10
2018-07-17T05:17:35.177Z,1008.10
2018-07-17T05:18:35.183Z,1008.10
2018-07-17T05:19:35.183Z,1008.12
2018-07-17T05:20:35.183Z,1008.12
2018-07-17T05:21:35.184Z,1008.12
2018-07-17T05:22:35.190Z,1008.14
2018-07-17T05:23:35.189Z,1008.13
2018-07-17T05:24:35.191Z,1008.16
2018-07-17T05:25:35.194Z,1008.18
2018-07-17T05:26:35.206Z,1008.14
2018-07-17T05:27:35.201Z,1008.18
2018-07-17T05:28:35.201Z,1008.18
2018-07-17T05:29:35.205Z,1008.17
2018-07-17T05:30:35.208Z,1008.20
2018-07-17T05:31:35.211Z,1008.16
2018-07-17T05:32:35.212Z,1008.17
2018-07-17T05:33:35.214Z,1008.17
2018-07-17T05:34:35.220Z,1008.14
2018-07-17T05:35:35.324Z,1008.14
2018-07-17T05:36:35.225Z,1008.12
2018-07-17T05:37:35.230Z,1008.10
2018-07-17T05:38:35.230Z,1008.06
2018-07-17T05:39:35.231Z,1008.07
2018-07-17T05:40:35.237Z,1008.08
2018-07-17T05:41:35.238Z,1008.06
2018-07-17T05:42:35.240Z,1008.07
2018-07-17T05:43:35.247Z,1008.06
2018-07-17T05:44:35.247Z,1008.06
2018-07-17T05:45:35.249Z,1008.05
2018-07-17T05:46:35.324Z,1008.09
2018-07-17T05:47:35.254Z,1008.08
2018-07-17T05:48:35.259Z,1008.09
2018-07-17T05:49:35.259Z,1008.08
2018-07-17T05:50:35.269Z,1008.11
2018-07-17T05:51:35.262Z,1008.09
2018-07-17T05:52:35.264Z,1008.10
2018-07-17T05:53:35.267Z,1008.14
2018-07-17T05:54:35.271Z,1008.12
2018-07-17T05:55:35.276Z,1008.14
2018-07-17T05:56:35.279Z,1008.15
2018-07-17T05:57:35.282Z,1008.17
2018-07-17T05:58:35.285Z,1008.15
2018-07-17T05:59:35.289Z,1008.18
2018-07-17T06:00:35.296Z,1008.20
2018-07-17T06:01:35.294Z,1008.22
2018-07-17T06:02:35.296Z,1008.20
2018-07-17T06:03:35.302Z,1008.25
2018-07-17T06:04:35.303Z,1008.22
2018-07-17T06:05:35.307Z,1008.25
2018-07-17T06:06:35.309Z,1008.25
2018-07-17T06:07:35.314Z,1008.25
2018-07-17T06:08:35.314Z,1008.25
2018-07-17T06:09:35.319Z,1008.22
2018-07-17T06:10:35.327Z,1008.27
2018-07-17T06:11:35.325Z,1008.23
2018-07-17T06:12:35.328Z,1008.25
2018-07-17T06:13:35.335Z,1008.25
2018-07-17T06:14:35.334Z,1008.25
2018-07-17T06:15:35.339Z,1008.25
2018-07-17T06:16:35.345Z,1008.25
2018-07-17T06:17:35.345Z,1008.26
2018-07-17T06:18:35.347Z,1008.23
2018-07-17T06:19:35.355Z,1008.22
2018-07-17T06:20:35.362Z,1008.23
2018-07-17T06:21:35.355Z,1008.25
2018-07-17T06:22:35.358Z,1008.24
2018-07-17T06:23:35.364Z,1008.26
2018-07-17T06:24:35.390Z,1008.28
2018-07-17T06:25:35.370Z,1008.28
2018-07-17T06:26:35.375Z,1008.29
2018-07-17T06:27:35.381Z,1008.29
2018-07-17T06:28:35.380Z,1008.29
2018-07-17T06:29:35.392Z,1008.30
2018-07-17T06:30:35.388Z,1008.32
2018-07-17T06:31:35.393Z,1008.31
2018-07-17T06:32:35.393Z,1008.36
2018-07-17T06:33:35.403Z,1008.38
2018-07-17T06:34:35.407Z,1008.38
2018-07-17T06:35:35.407Z,1008.40
2018-07-17T06:36:35.425Z,1008.39
2018-07-17T06:37:35.417Z,1008.39
2018-07-17T06:38:35.420Z,1008.46
2018-07-17T06:39:35.425Z,1008.43
2018-07-17T06:40:35.484Z,1008.46
2018-07-17T06:41:35.436Z,1008.43
2018-07-17T06:42:35.445Z,1008.44
2018-07-17T06:43:35.449Z,1008.47
2018-07-17T06:44:35.456Z,1008.45
2018-07-17T06:45:35.453Z,1008.40
2018-07-17T06:46:35.454Z,1008.42
2018-07-17T06:47:35.472Z,1008.41
2018-07-17T06:48:35.469Z,1008.41
2018-07-17T06:49:35.475Z,1008.43
2018-07-17T06:50:35.649Z,1008.44
2018-07-17T06:51:35.486Z,1008.44
2018-07-17T06:52:35.494Z,1008.40
2018-07-17T06:53:35.497Z,1008.40
2018-07-17T06:54:35.502Z,1008.39
2018-07-17T06:55:35.510Z,1008.40
2018-07-17T06:56:35.526Z,1008.38
2018-07-17T06:57:35.525Z,1008.40
2018-07-17T06:58:35.530Z,1008.38
2018-07-17T06:59:35.536Z,1008.40
2018-07-17T07:00:35.542Z,1008.37
2018-07-17T07:01:35.553Z,1008.42
2018-07-17T07:02:35.556Z,1008.36
2018-07-17T07:03:35.562Z,1008.40
2018-07-17T07:04:35.569Z,1008.37
2018-07-17T07:05:35.574Z,1008.38
2018-07-17T07:06:35.582Z,1008.35
2018-07-17T07:07:35.586Z,1008.34
2018-07-17T07:08:35.594Z,1008.36
2018-07-17T07:09:35.602Z,1008.38
2018-07-17T07:10:35.608Z,1008.42
2018-07-17T07:11:35.626Z,1008.39
2018-07-17T07:12:35.620Z,1008.34
2018-07-17T07:13:35.628Z,1008.32
2018-07-17T07:14:35.635Z,1008.33
2018-07-17T07:15:35.643Z,1008.30
2018-07-17T07:16:35.648Z,1008.28
2018-07-17T07:17:35.656Z,1008.27
2018-07-17T07:18:35.660Z,1008.24
2018-07-17T07:19:35.672Z,1008.22
2018-07-17T07:20:35.680Z,1008.22
2018-07-17T07:21:35.680Z,1008.20
2018-07-17T07:22:35.691Z,1008.21
2018-07-17T07:23:35.698Z,1008.20
2018-07-17T07:24:35.707Z,1008.21
2018-07-17T07:25:35.712Z,1008.23
2018-07-17T07:26:35.721Z,1008.26
2018-07-17T07:27:35.755Z,1008.26
2018-07-17T07:28:35.736Z,1008.26
2018-07-17T07:29:35.743Z,1008.24
2018-07-17T07:30:35.749Z,1008.25
2018-07-17T07:31:35.774Z,1008.26
2018-07-17T07:32:35.762Z,1008.28
2018-07-17T07:33:35.773Z,1008.30
2018-07-17T07:34:35.803Z,1008.26
2018-07-17T07:35:35.785Z,1008.25
2018-07-17T07:36:35.823Z,1008.29
2018-07-17T07:37:35.809Z,1008.30
2018-07-17T07:38:35.806Z,1008.29
2018-07-17T07:39:35.808Z,1008.30
2018-07-17T07:40:35.818Z,1008.30
2018-07-17T07:41:35.827Z,1008.27
2018-07-17T07:42:35.834Z,1008.26
2018-07-17T07:43:35.840Z,1008.27
2018-07-17T07:44:35.847Z,1008.22
2018-07-17T07:45:35.853Z,1008.19
2018-07-17T07:46:35.863Z,1008.21
2018-07-17T07:47:35.868Z,1008.18
2018-07-17T07:48:35.875Z,1008.18
2018-07-17T07:49:35.887Z,1008.14
2018-07-17T07:50:35.890Z,1008.14
2018-07-17T07:51:35.899Z,1008.12
2018-07-17T07:52:35.918Z,1008.11
2018-07-17T07:53:35.911Z,1008.12
2018-07-17T07:54:35.917Z,1008.12
2018-07-17T07:55:35.992Z,1008.09
2018-07-17T07:56:35.939Z,1008.14
2018-07-17T07:57:35.949Z,1008.08
2018-07-17T07:58:35.952Z,1008.11
2018-07-17T07:59:35.959Z,1008.07
2018-07-17T08:00:35.967Z,1008.08
2018-07-17T08:01:35.972Z,1008.06
2018-07-17T08:02:35.980Z,1008.06
2018-07-17T08:03:36.048Z,1008.05
2018-07-17T08:04:36.007Z,1008.09
2018-07-17T08:05:36.003Z,1008.12
2018-07-17T08:06:36.008Z,1008.07
2018-07-17T08:07:36.017Z,1008.12
2018-07-17T08:08:36.024Z,1008.14
2018-07-17T08:09:36.034Z,1008.13
2018-07-17T08:10:36.044Z,1008.17
2018-07-17T08:11:36.065Z,1008.14
2018-07-17T08:12:36.057Z,1008.18
2018-07-17T08:13:36.061Z,1008.23
2018-07-17T08:14:36.068Z,1008.19
2018-07-17T08:15:36.074Z,1008.20
2018-07-17T08:16:36.085Z,1008.19
2018-07-17T08:17:36.092Z,1008.21
2018-07-17T08:18:36.098Z,1008.20
2018-07-17T08:19:36.106Z,1008.20
2018-07-17T08:20:36.115Z,1008.16
2018-07-17T08:21:36.146Z,1008.17
2018-07-17T08:22:36.129Z,1008.17
2018-07-17T08:23:36.136Z,1008.15
2018-07-17T08:24:36.147Z,1008.14
2018-07-17T08:25:36.155Z,1008.14
2018-07-17T08:26:36.163Z,1008.14
2018-07-17T08:27:36.167Z,1008.15
2018-07-17T08:28:36.174Z,1008.16
2018-07-17T08:29:36.200Z,1008.15
2018-07-17T08:30:36.191Z,1008.14
2018-07-17T08:31:36.199Z,1008.18
2018-07-17T08:32:36.205Z,1008.15
2018-07-17T08:33:36.217Z,1008.21
2018-07-17T08:34:36.223Z,1008.20
2018-07-17T08:35:36.235Z,1008.22
2018-07-17T08:36:36.237Z,1008.19
2018-07-17T08:37:36.246Z,1008.19
2018-07-17T08:38:36.258Z,1008.22
2018-07-17T08:39:36.260Z,1008.15
2018-07-17T08:40:36.267Z,1008.15
2018-07-17T08:41:36.275Z,1008.15
2018-07-17T08:42:36.282Z,1008.15
2018-07-17T08:43:36.316Z,1008.15
2018-07-17T08:44:36.295Z,1008.12
2018-07-17T08:45:36.305Z,1008.14
2018-07-17T08:46:36.311Z,1008.16
2018-07-17T08:47:36.323Z,1008.13
2018-07-17T08:48:36.328Z,1008.16
2018-07-17T08:49:36.335Z,1008.16
2018-07-17T08:50:36.340Z,1008.18
2018-07-17T08:51:36.352Z,1008.23
2018-07-17T08:52:36.357Z,1008.18
2018-07-17T08:53:36.364Z,1008.20
2018-07-17T08:54:36.541Z,1008.24
2018-07-17T08:55:36.380Z,1008.25
2018-07-17T08:56:36.388Z,1008.27
2018-07-17T08:57:36.396Z,1008.32
2018-07-17T08:58:36.404Z,1008.31
2018-07-17T08:59:36.411Z,1008.29
2018-07-17T09:00:36.420Z,1008.26
2018-07-17T09:01:36.426Z,1008.30
2018-07-17T09:02:36.445Z,1008.28
2018-07-17T09:03:36.441Z,1008.25
2018-07-17T09:04:36.452Z,1008.19
2018-07-17T09:05:36.457Z,1008.14
2018-07-17T09:06:36.463Z,1008.10
2018-07-17T09:07:36.472Z,1008.12
2018-07-17T09:08:36.481Z,1008.08
2018-07-17T09:09:36.488Z,1008.08
2018-07-17T09:10:36.497Z,1008.08
2018-07-17T09:11:36.504Z,1008.09
2018-07-17T09:12:36.517Z,1008.17
2018-07-17T09:13:36.525Z,1008.14
2018-07-17T09:14:36.529Z,1008.13
2018-07-17T09:15:36.536Z,1008.12
2018-07-17T09:16:36.545Z,1008.10
2018-07-17T09:17:36.555Z,1008.09
2018-07-17T09:18:36.558Z,1008.10
2018-07-17T09:19:36.566Z,1008.09
2018-07-17T09:20:36.573Z,1008.10
2018-07-17T09:21:36.646Z,1008.10
2018-07-17T09:22:36.586Z,1008.04
2018-07-17T09:23:36.592Z,1008.09
2018-07-17T09:24:36.598Z,1008.04
2018-07-17T09:25:36.605Z,1008.01
2018-07-17T09:26:36.608Z,1008.02
2018-07-17T09:27:36.621Z,1008.02
2018-07-17T09:28:36.632Z,1008.03
2018-07-17T09:29:36.629Z,1008.03
2018-07-17T09:30:36.635Z,1008.05
2018-07-17T09:31:36.644Z,1008.02
2018-07-17T09:32:36.647Z,1007.99
2018-07-17T09:33:36.714Z,1007.98
2018-07-17T09:34:36.655Z,1007.97
2018-07-17T09:35:36.660Z,1007.98
2018-07-17T09:36:36.667Z,1007.99
2018-07-17T09:37:36.674Z,1007.95
2018-07-17T09:38:36.686Z,1007.90
2018-07-17T09:39:36.686Z,1007.81
2018-07-17T09:40:36.698Z,1007.89
2018-07-17T09:41:36.700Z,1007.92
2018-07-17T09:42:36.703Z,1007.92
2018-07-17T09:43:36.710Z,1007.87
2018-07-17T09:44:36.712Z,1007.92
2018-07-17T09:45:36.724Z,1007.87
2018-07-17T09:46:36.722Z,1007.87
2018-07-17T09:47:36.732Z,1007.89
2018-07-17T09:48:36.738Z,1007.89
2018-07-17T09:49:36.741Z,1007.86
2018-07-17T09:50:36.746Z,1007.86
2018-07-17T09:51:36.752Z,1007.90
2018-07-17T09:52:36.755Z,1007.90
2018-07-17T09:53:36.767Z,1007.87
2018-07-17T09:54:36.769Z,1007.84
2018-07-17T09:55:36.775Z,1007.85
2018-07-17T09:56:36.779Z,1007.85
2018-07-17T09:57:36.784Z,1007.88
2018-07-17T09:58:36.800Z,1007.87
2018-07-17T09:59:36.798Z,1007.82
2018-07-17T10:00:36.810Z,1007.87
2018-07-17T10:01:36.807Z,1007.83
2018-07-17T10:02:36.812Z,1007.88
2018-07-17T10:03:36.817Z,1007.86
2018-07-17T10:04:36.822Z,1007.85
2018-07-17T10:05:36.837Z,1007.84
2018-07-17T10:06:36.836Z,1007.89
2018-07-17T10:07:36.838Z,1007.84
2018-07-17T10:08:36.844Z,1007.82
2018-07-17T10:09:36.898Z,1007.85
2018-07-17T10:10:36.852Z,1007.78
2018-07-17T10:11:36.907Z,1007.89
2018-07-17T10:12:36.868Z,1007.87
2018-07-17T10:13:36.870Z,1007.84
2018-07-17T10:14:37.001Z,1007.87
2018-07-17T10:15:36.880Z,1007.89
2018-07-17T10:16:36.902Z,1007.90
2018-07-17T10:17:36.893Z,1007.84
2018-07-17T10:18:36.902Z,1007.83
2018-07-17T10:19:36.902Z,1007.78
2018-07-17T10:20:36.907Z,1007.81
2018-07-17T10:21:36.912Z,1007.80
2018-07-17T10:22:36.921Z,1007.81
2018-07-17T10:23:36.924Z,1007.82
2018-07-17T10:24:36.933Z,1007.76
2018-07-17T10:25:36.933Z,1007.80
2018-07-17T10:26:36.942Z,1007.86
2018-07-17T10:27:36.949Z,1007.77
2018-07-17T10:28:36.950Z,1007.78
2018-07-17T10:29:36.956Z,1007.77
2018-07-17T10:30:36.961Z,1007.75
2018-07-17T10:31:36.969Z,1007.79
2018-07-17T10:32:36.976Z,1007.80
2018-07-17T10:33:36.981Z,1007.78
2018-07-17T10:34:36.988Z,1007.80
2018-07-17T10:35:36.987Z,1007.80
2018-07-17T10:36:37.003Z,1007.76
2018-07-17T10:37:36.999Z,1007.82
2018-07-17T10:38:37.039Z,1007.85
2018-07-17T10:39:37.009Z,1007.83
2018-07-17T10:40:37.019Z,1007.83
2018-07-17T10:41:37.023Z,1007.81
2018-07-17T10:42:37.031Z,1007.77
2018-07-17T10:43:37.050Z,1007.70
2018-07-17T10:44:37.038Z,1007.75
2018-07-17T10:45:37.038Z,1007.74
2018-07-17T10:46:37.049Z,1007.78
2018-07-17T10:47:37.108Z,1007.73
2018-07-17T10:48:37.057Z,1007.76
2018-07-17T10:49:37.065Z,1007.67
2018-07-17T10:50:37.076Z,1007.67
2018-07-17T10:51:37.077Z,1007.70
2018-07-17T10:52:37.081Z,1007.66
2018-07-17T10:53:37.089Z,1007.66
2018-07-17T10:54:37.094Z,1007.67
2018-07-17T10:55:37.099Z,1007.61
2018-07-17T10:56:37.108Z,1007.66
2018-07-17T10:57:37.110Z,1007.63
2018-07-17T10:58:37.115Z,1007.63
2018-07-17T10:59:37.123Z,1007.59
2018-07-17T11:00:37.129Z,1007.59
2018-07-17T11:01:37.135Z,1007.58
2018-07-17T11:02:37.137Z,1007.61
2018-07-17T11:03:37.145Z,1007.64
2018-07-17T11:04:37.153Z,1007.61
2018-07-17T11:05:37.157Z,1007.57
2018-07-17T11:06:37.168Z,1007.56
2018-07-17T11:07:37.168Z,1007.57
2018-07-17T11:08:37.174Z,1007.59
2018-07-17T11:09:37.180Z,1007.62
2018-07-17T11:10:37.186Z,1007.66
2018-07-17T11:11:37.192Z,1007.67
2018-07-17T11:12:37.197Z,1007.65
2018-07-17T11:13:37.203Z,1007.62
2018-07-17T11:14:37.215Z,1007.58
2018-07-17T11:15:37.216Z,1007.62
2018-07-17T11:16:37.224Z,1007.57
2018-07-17T11:17:37.229Z,1007.55
2018-07-17T11:18:37.230Z,1007.59
2018-07-17T11:19:37.239Z,1007.60
2018-07-17T11:20:37.244Z,1007.63
2018-07-17T11:21:37.253Z,1007.59
2018-07-17T11:22:37.256Z,1007.54
2018-07-17T11:23:37.264Z,1007.59
2018-07-17T11:24:37.269Z,1007.53
2018-07-17T11:25:37.287Z,1007.54
2018-07-17T11:26:37.278Z,1007.60
2018-07-17T11:27:37.304Z,1007.55
2018-07-17T11:28:37.290Z,1007.50
2018-07-17T11:29:37.296Z,1007.51
2018-07-17T11:30:37.301Z,1007.56
2018-07-17T11:31:37.308Z,1007.55
2018-07-17T11:32:37.315Z,1007.57
2018-07-17T11:33:37.320Z,1007.51
2018-07-17T11:34:37.326Z,1007.53
2018-07-17T11:35:37.332Z,1007.47
2018-07-17T11:36:37.338Z,1007.51
2018-07-17T11:37:37.346Z,1007.50
2018-07-17T11:38:37.392Z,1007.54
2018-07-17T11:39:37.356Z,1007.49
2018-07-17T11:40:37.366Z,1007.44
2018-07-17T11:41:37.368Z,1007.42
2018-07-17T11:42:37.374Z,1007.42
2018-07-17T11:43:37.380Z,1007.43
2018-07-17T11:44:37.387Z,1007.47
2018-07-17T11:45:37.393Z,1007.45
2018-07-17T11:46:37.397Z,1007.46
2018-07-17T11:47:37.404Z,1007.38
2018-07-17T11:48:37.410Z,1007.39
2018-07-17T11:49:37.415Z,1007.38
2018-07-17T11:50:37.424Z,1007.44
2018-07-17T11:51:37.429Z,1007.38
2018-07-17T11:52:37.492Z,1007.39
2018-07-17T11:53:37.441Z,1007.35
2018-07-17T11:54:37.447Z,1007.39
2018-07-17T11:55:37.453Z,1007.39
2018-07-17T11:56:37.460Z,1007.35
2018-07-17T11:57:37.466Z,1007.35
2018-07-17T11:58:37.472Z,1007.25
2018-07-17T11:59:37.557Z,1007.32
2018-07-17T12:00:37.487Z,1007.31
2018-07-17T12:01:37.494Z,1007.33
2018-07-17T12:02:37.496Z,1007.32
2018-07-17T12:03:37.503Z,1007.38
2018-07-17T12:04:37.509Z,1007.38
2018-07-17T12:05:37.550Z,1007.35